• Join FlightAware (Why Join?)
  • Login
  • US Flag 
02:01AM EST


 

Airport Tracker/Info


-or-


 

Live Flight TrackerFlight Track Log ✈ EJA820 ✈ 20-Apr-2013 ✈ KHKY - KAPF

Flight Track Log - Related Links

Times and Time Zones

All times are in EDT time to prevent confusion due to time zone crossing. See the EJA820 flight status page for this flight to view local times or setup timezone preferences in your user account.

Time Position Orientation Groundspeed Altitude Reporting Facility
EDT Latitude Longitude Course Direction KTS MPH feet Rate Location/Type
11:10AM 35.7739 -81.4228 208° Southwest 174 200 5,200  Level Atlanta Center
11:11AM 35.7328 -81.4497 208° Southwest 186 214 5,000 -60 Descending Atlanta Center
11:12AM 35.7419 -81.3906 79° East 191 220 5,100 -1,980 Climbing Atlanta Center
11:13AM 35.7297 -81.4064 226° Southwest 191 220 1,900 120 Descending Atlanta Center
11:14AM 35.6872 -81.4742 232° Southwest 215 247 5,300 3,360 Climbing Atlanta Center
11:15AM 35.6428 -81.5394 230° Southwest 239 275 8,700 2,700 Climbing Atlanta Center
11:16AM 35.6003 -81.6097 233° Southwest 251 289 10,700 1,140 Climbing Atlanta Center
11:17AM 35.5497 -81.6828 230° Southwest 267 307 11,000 240 Climbing Atlanta Center
11:18AM 35.4753 -81.7206 202° Southwest 298 343 11,200 1,500 Climbing Atlanta Center
11:19AM 35.3828 -81.6825 161° South 333 383 14,100 2,700 Climbing Atlanta Center
11:20AM 35.2903 -81.6444 161° South 346 398 16,600 2,400 Climbing Atlanta Center
11:21AM 35.1933 -81.6039 161° South 351 404 18,900 2,400 Climbing Atlanta Center
11:22AM 35.1008 -81.5636 160° South 357 411 21,400 2,220 Climbing Atlanta Center
11:23AM 35.0039 -81.5258 162° South 357 411 23,400 1,920 Climbing Atlanta Center
11:24AM 34.9114 -81.4856 160° South 362 417 25,300 1,740 Climbing Atlanta Center
11:25AM 34.8189 -81.4506 163° South 362 417 26,900 1,440 Climbing Atlanta Center
11:26AM 34.7367 -81.4125 159° South 351 404 28,200 1,500 Climbing Atlanta Center
11:27AM 34.6461 -81.3750 161° South 351 404 30,000 1,920 Climbing Atlanta Center
11:28AM 34.5578 -81.3400 162° South 328 377 32,100 2,460 Climbing Atlanta Center
11:30AM 34.3819 -81.3503 183° South 288 331 38,000 1,800 Climbing Jacksonville Center
11:31AM 34.3031 -81.3742 194° South 288 331 38,000 -660 Level Jacksonville Center
11:32AM 34.2261 -81.3933 192° South 288 331 36,700 -300 Descending Jacksonville Center
11:33AM 34.1511 -81.4094 190° South 282 325 37,500 600 Climbing Jacksonville Center
11:34AM 34.0719 -81.4311 193° South 282 325 38,000 240 Climbing Jacksonville Center
11:35AM 33.9867 -81.4500 190° South 297 342 38,000  Level Jacksonville Center
11:36AM 33.8950 -81.4664 188° South 316 364 38,000  Level Jacksonville Center
11:37AM 33.8036 -81.4853 190° South 334 384 38,000  Level Jacksonville Center
11:38AM 33.7139 -81.5019 189° South 334 384 38,000  Level Jacksonville Center
11:39AM 33.6222 -81.5183 188° South 334 384 38,000  Level Jacksonville Center
11:40AM 33.5306 -81.5347 188° South 334 384 38,000  Level Jacksonville Center
11:41AM 33.4392 -81.5508 188° South 334 384 38,000  Level Jacksonville Center
11:42AM 33.3494 -81.5697 190° South 334 384 38,000  Level Jacksonville Center
11:43AM 33.2600 -81.5833 187° South 334 384 38,000  Level Jacksonville Center
11:44AM 33.1786 -81.6019 191° South 334 384 38,000  Level Jacksonville Center
11:45AM 33.0850 -81.6208 190° South 334 384 38,000  Level Jacksonville Center
11:46AM 32.9911 -81.6369 188° South 334 384 38,000  Level Jacksonville Center
11:47AM 32.8975 -81.6556 189° South 334 384 38,000  Level Jacksonville Center
11:48AM 32.8078 -81.6692 187° South 334 384 38,000  Level Jacksonville Center
11:49AM 32.7097 -81.6853 188° South 334 384 38,000  Level Jacksonville Center
11:50AM 32.6142 -81.7086 192° South 334 384 38,000  Level Jacksonville Center
11:51AM 32.5286 -81.7222 188° South 341 392 38,000  Level Jacksonville Center
11:52AM 32.4264 -81.7408 189° South 346 398 38,000  Level Jacksonville Center
11:53AM 32.3306 -81.7592 189° South 346 398 38,000  Level Jacksonville Center
11:54AM 32.2450 -81.7725 188° South 351 404 38,000  Level Jacksonville Center
11:55AM 32.1408 -81.7908 188° South 351 404 38,000  Level Jacksonville Center
11:56AM 32.0575 -81.8067 189° South 351 404 38,100 540 Climbing Jacksonville Center
11:57AM 31.9553 -81.8250 189° South 346 398 39,100 780 Climbing Jacksonville Center
11:58AM 31.8617 -81.8433 189° South 346 398 39,700 420 Climbing Jacksonville Center
11:59AM 31.7781 -81.8564 188° South 346 398 40,000 120 Climbing Jacksonville Center
12:00PM 31.6717 -81.8747 188° South 351 404 40,000  Level Jacksonville Center
12:01PM 31.5822 -81.8928 190° South 356 410 40,000  Level Jacksonville Center
12:02PM 31.4736 -81.9108 188° South 367 422 40,000  Level Jacksonville Center
12:03PM 31.3758 -81.9267 188° South 367 422 40,000  Level Jacksonville Center
12:04PM 31.2756 -81.9444 189° South 367 422 40,000  Level Jacksonville Center
12:05PM 31.1756 -81.9625 189° South 367 422 40,000  Level Jacksonville Center
12:06PM 31.0756 -81.9806 189° South 367 422 40,000  Level Jacksonville Center
12:07PM 30.9733 -81.9986 189° South 367 422 40,000  Level Jacksonville Center
12:08PM 30.8711 -82.0164 188° South 372 428 40,000  Level Jacksonville Center
12:09PM 30.7689 -82.0342 188° South 372 428 40,000  Level Jacksonville Center
12:10PM 30.6728 -82.0400 183° South 372 428 40,000  Level Jacksonville Center
12:11PM 30.5664 -82.0289 175° South 377 434 40,000  Level Jacksonville Center
12:12PM 30.4556 -82.0106 172° South 392 451 40,000  Level Jacksonville Center
12:13PM 30.3469 -81.9994 175° South 392 451 40,000  Level Jacksonville Center
12:14PM 30.2342 -81.9861 174° South 397 457 40,000  Level Jacksonville Center
12:15PM 30.1233 -81.9753 175° South 404 465 40,000 -240 Level Jacksonville Center
12:16PM 30.0106 -81.9692 177° South 409 471 39,600 -720 Descending Jacksonville Center
12:17PM 29.8997 -81.9558 174° South 404 465 38,600 -1,020 Descending Jacksonville Center
12:18PM 29.7911 -81.9447 175° South 404 465 37,600 -960 Descending Jacksonville Center
12:19PM 29.6847 -81.9339 175° South 399 459 36,700 -960 Descending Jacksonville Center
12:20PM 29.5781 -81.9206 174° South 394 453 35,700 -900 Descending Jacksonville Center
12:21PM 29.4714 -81.9122 176° South 388 447 35,000 -360 Descending Jacksonville Center
12:22PM 29.3608 -81.8989 174° South 388 447 35,000 -180 Level Jacksonville Center
12:23PM 29.2522 -81.8858 174° South 388 447 34,700 -540 Descending Jacksonville Center
12:24PM 29.1414 -81.8703 173° South 394 453 34,000 -600 Descending Jacksonville Center
12:25PM 29.0306 -81.8594 175° South 401 461 33,600 -960 Descending Jacksonville Center
12:26PM 28.9117 -81.8489 176° South 401 461 32,100 -1,500 Descending Jacksonville Center
12:27PM 28.7989 -81.8336 173° South 407 468 30,600 -1,500 Descending Jacksonville Center
12:30PM 28.5369 -81.8019 174° South 413 475 27,100 -1,440 Descending Miami Center
12:31PM 28.4294 -81.7736 167° South 408 470 25,800 -1,080 Descending Miami Center
12:32PM 28.3281 -81.7431 165° South 408 470 25,000 -540 Descending Miami Center
12:33PM 28.2183 -81.7219 170° South 408 470 24,800 -540 Descending Miami Center
12:34PM 28.1064 -81.6983 169° South 408 470 24,000 -600 Descending Miami Center
12:35PM 27.9986 -81.6772 170° South 408 470 23,600 -540 Descending Miami Center
12:36PM 27.8867 -81.6558 170° South 408 470 23,000 -900 Descending Miami Center
12:37PM 27.7728 -81.6325 170° South 395 455 21,900 -1,260 Descending Miami Center
12:38PM 27.6669 -81.6092 169° South 385 443 20,500 -1,620 Descending Miami Center
12:39PM 27.5675 -81.5911 171° South 385 443 18,700 -1,800 Descending Miami Center
12:40PM 27.4761 -81.5756 171° South 379 436 17,000 -1,860 Descending Miami Center
12:41PM 27.3789 -81.5528 168° South 369 425 15,000 -1,800 Descending Miami Center
12:42PM 27.2811 -81.5372 172° South 363 418 13,400 -1,560 Descending Miami Center
12:43PM 27.1836 -81.5169 170° South 363 418 11,900 -1,140 Descending Miami Center
12:44PM 27.0925 -81.4992 170° South 356 410 11,200 -960 Descending Miami Center
12:45PM 27.0117 -81.4797 168° South 331 381 10,000 -600 Descending Miami Center
12:46PM 26.9336 -81.4394 155° Southeast 288 331 10,000 -480 Level Miami Center
12:47PM 26.8617 -81.4064 158° South 277 319 9,100 -1,620 Descending Miami Center
12:48PM 26.7914 -81.3803 162° South 272 313 6,800 -2,100 Descending Miami Center
12:49PM 26.7267 -81.3778 178° South 259 298 5,000 -900 Descending Miami Center
12:50PM 26.6603 -81.3706 174° South 252 290 5,000 -540 Level Miami Center
12:51PM 26.5833 -81.3608 174° South 252 290 4,000 -720 Descending Miami Center
12:52PM 26.5419 -81.4125 228° Southwest 223 257 3,600 -540 Descending Miami Center
12:53PM 26.5375 -81.4889 266° West 206 237 3,000 -600 Descending Miami Center
12:55PM 26.5365 -81.7044 204° Southwest  Level Estimated
01:02PM 26.5333 -81.7500 318° Northwest  Level FlightAware Approximate
01:03PM 26.4259 -81.7572 180° South  Level Estimated